Time;durP1;ratioP1;P1;durP2;ratioP2;P2;SDS_P1;SDS_P2;PMS_P1;PMS_P2;Temp;Humidity;BMP_temperature;BMP_pressure;BME280_temperature;BME280_humidity;BME280_pressure;Samples;Min_cycle;Max_cycle;Signal;HPM_P1;HPM_P2
2022/11/24 00:02:08;;;;;;;9.43;5.80;;;3.70;96.00;;;;;;4991559;28;20285;-61
2022/11/24 00:04:34;;;;;;;7.00;5.30;;;3.70;96.00;;;;;;5011314;28;20289;-62
2022/11/24 00:06:59;;;;;;;6.73;5.03;;;3.70;96.00;;;;;;4989802;28;20294;-62
2022/11/24 00:09:25;;;;;;;7.50;5.17;;;3.70;96.00;;;;;;5022993;28;20652;-61
2022/11/24 00:11:51;;;;;;;6.57;5.47;;;3.60;96.00;;;;;;4983198;28;20253;-61
2022/11/24 00:14:16;;;;;;;9.67;6.17;;;3.60;96.00;;;;;;5005422;28;20190;-61
2022/11/24 00:16:42;;;;;;;8.23;6.23;;;3.60;96.00;;;;;;4990124;28;20978;-61
2022/11/24 00:19:09;;;;;;;5.43;4.80;;;3.50;96.00;;;;;;5005835;28;20194;-62
2022/11/24 00:21:36;;;;;;;7.90;5.37;;;3.50;96.00;;;;;;5005624;28;20217;-61
2022/11/24 00:24:02;;;;;;;10.60;6.13;;;3.40;96.00;;;;;;5033461;28;20445;-62
2022/11/24 00:26:29;;;;;;;7.47;4.97;;;3.40;95.90;;;;;;5016569;28;21001;-61
2022/11/24 00:29:01;;;;;;;5.83;5.23;;;3.30;95.90;;;;;;5020949;28;20778;-61
2022/11/24 00:31:35;;;;;;;9.03;5.53;;;3.30;95.90;;;;;;5022653;28;20475;-62
2022/11/24 00:34:06;;;;;;;5.97;4.70;;;3.20;95.80;;;;;;5018878;28;20436;-61
2022/11/24 00:36:33;;;;;;;6.53;4.93;;;3.20;95.80;;;;;;5017313;28;20434;-61
2022/11/24 00:39:01;;;;;;;8.27;6.17;;;3.10;95.80;;;;;;4989919;28;20482;-61
2022/11/24 00:41:30;;;;;;;7.93;5.40;;;3.10;95.80;;;;;;5022635;28;20491;-61
2022/11/24 00:43:56;;;;;;;8.07;5.60;;;3.00;95.70;;;;;;5022637;28;20441;-61
2022/11/24 00:46:22;;;;;;;9.73;5.57;;;3.00;95.80;;;;;;5020428;28;20445;-61
2022/11/24 00:49:08;;;;;;;7.60;5.87;;;3.00;95.80;;;;;;5010467;28;20924;-61
2022/11/24 00:51:33;;;;;;;8.80;6.23;;;3.00;95.80;;;;;;5018413;28;20475;-61
2022/11/24 00:54:00;;;;;;;8.80;6.47;;;2.90;95.70;;;;;;4986724;28;20426;-61
2022/11/24 00:56:27;;;;;;;7.40;5.80;;;2.80;95.70;;;;;;5019221;28;20183;-61
2022/11/24 00:58:54;;;;;;;6.80;5.60;;;2.80;95.70;;;;;;5048893;28;20430;-61
2022/11/24 01:01:26;;;;;;;7.40;5.37;;;2.80;95.70;;;;;;5015314;28;20833;-61
2022/11/24 01:03:54;;;;;;;7.50;5.37;;;2.80;95.70;;;;;;5019068;28;20433;-61
2022/11/24 01:06:22;;;;;;;7.20;5.67;;;2.70;95.70;;;;;;5011201;28;20985;-61
2022/11/24 01:08:48;;;;;;;8.43;5.87;;;2.70;95.70;;;;;;5015029;28;20426;-61
2022/11/24 01:11:27;;;;;;;7.53;6.03;;;2.60;95.70;;;;;;5018872;28;20484;-61
2022/11/24 01:13:56;;;;;;;6.70;5.63;;;2.60;95.70;;;;;;5032926;28;20191;-61
2022/11/24 01:16:33;;;;;;;6.80;5.37;;;2.60;95.70;;;;;;5018580;28;20428;-61
2022/11/24 01:18:59;;;;;;;7.77;5.97;;;2.60;95.70;;;;;;5034930;28;20456;-61
2022/11/24 01:21:28;;;;;;;9.87;6.40;;;2.50;95.70;;;;;;5028276;28;20452;-61
2022/11/24 01:23:53;;;;;;;7.83;6.03;;;2.40;95.70;;;;;;4986210;28;20444;-61
2022/11/24 01:26:21;;;;;;;8.07;5.47;;;2.40;95.70;;;;;;5006060;28;20522;-61
2022/11/24 01:28:50;;;;;;;9.83;5.87;;;2.30;95.60;;;;;;5001625;28;20222;-61
2022/11/24 01:31:16;;;;;;;7.00;5.43;;;2.30;95.70;;;;;;5017899;28;20473;-61
2022/11/24 01:33:42;;;;;;;11.47;6.07;;;2.30;95.70;;;;;;5001635;28;20435;-61
2022/11/24 01:36:07;;;;;;;9.17;6.20;;;2.30;95.70;;;;;;5001916;28;20195;-60
2022/11/24 01:38:33;;;;;;;7.80;5.43;;;2.30;95.70;;;;;;4984840;28;20239;-61
2022/11/24 01:41:48;;;;;;;7.70;5.33;;;2.20;95.70;;;;;;4982308;28;20234;-61
2022/11/24 01:44:25;;;;;;;8.37;6.10;;;2.20;95.70;;;;;;5002804;28;20199;-61
2022/11/24 01:47:07;;;;;;;7.03;5.30;;;2.10;95.70;;;;;;5035318;28;20461;-61
2022/11/24 01:49:43;;;;;;;10.23;5.53;;;2.10;95.70;;;;;;5015335;28;20440;-61
2022/11/24 01:52:21;;;;;;;9.03;6.10;;;2.00;95.70;;;;;;5008928;28;20501;-61
2022/11/24 01:55:11;;;;;;;6.57;5.47;;;2.00;95.70;;;;;;5011854;28;20438;-60
2022/11/24 01:57:49;;;;;;;8.17;5.53;;;2.00;95.70;;;;;;5021148;28;20441;-61
2022/11/24 02:00:15;;;;;;;6.87;5.40;;;1.90;95.70;;;;;;5034773;28;20432;-61
2022/11/24 02:02:43;;;;;;;6.70;5.40;;;1.90;95.70;;;;;;5017527;28;20506;-61
2022/11/24 02:05:22;;;;;;;8.97;6.10;;;1.90;95.70;;;;;;4996205;28;20434;-61
2022/11/24 02:07:49;;;;;;;7.40;5.67;;;1.90;95.80;;;;;;5028125;28;20518;-61
2022/11/24 02:10:15;;;;;;;7.93;6.10;;;1.90;95.80;;;;;;5028548;28;20461;-61
2022/11/24 02:12:45;;;;;;;6.50;5.27;;;1.90;95.80;;;;;;5017485;28;20965;-60
2022/11/24 02:15:12;;;;;;;10.23;6.57;;;1.90;95.80;;;;;;5016546;28;20457;-61
2022/11/24 02:17:38;;;;;;;10.87;6.30;;;1.90;95.80;;;;;;5017287;28;20505;-61
2022/11/24 02:20:07;;;;;;;8.40;6.40;;;1.90;95.90;;;;;;5012372;28;20525;-61
2022/11/24 02:22:44;;;;;;;7.63;6.20;;;1.90;95.90;;;;;;5016011;28;20272;-61
2022/11/24 02:25:25;;;;;;;8.90;6.10;;;1.90;95.90;;;;;;5005752;28;20440;-61
2022/11/24 02:27:52;;;;;;;7.13;5.43;;;1.90;96.00;;;;;;5017455;28;20461;-61
2022/11/24 02:30:18;;;;;;;7.97;6.17;;;1.90;96.00;;;;;;4999588;28;20434;-61
2022/11/24 02:32:44;;;;;;;15.93;6.20;;;1.90;96.00;;;;;;5015331;28;20974;-61
2022/11/24 02:35:12;;;;;;;8.07;5.50;;;1.90;96.10;;;;;;4992974;28;20566;-61
2022/11/24 02:37:37;;;;;;;9.60;5.93;;;2.00;96.10;;;;;;5012388;28;20254;-61
2022/11/24 02:40:07;;;;;;;7.57;5.63;;;2.00;96.10;;;;;;4995610;28;20446;-61
2022/11/24 02:42:39;;;;;;;8.13;6.37;;;2.10;96.10;;;;;;4981236;28;20194;-61
2022/11/24 02:45:05;;;;;;;8.07;5.90;;;2.10;96.20;;;;;;5012932;28;21040;-61
2022/11/24 02:47:31;;;;;;;8.40;6.33;;;2.10;96.20;;;;;;5029796;28;20438;-61
2022/11/24 02:49:56;;;;;;;13.67;6.97;;;2.10;96.20;;;;;;5017163;28;20513;-61
2022/11/24 02:52:22;;;;;;;6.77;5.23;;;2.20;96.20;;;;;;4993572;28;20230;-61
2022/11/24 02:54:47;;;;;;;9.70;6.67;;;2.20;96.20;;;;;;4996738;28;20192;-60
2022/11/24 02:57:14;;;;;;;9.37;6.17;;;2.20;96.20;;;;;;4977280;28;20199;-61
2022/11/24 02:59:40;;;;;;;8.23;5.80;;;2.20;96.20;;;;;;4996434;28;20191;-61
2022/11/24 03:02:05;;;;;;;7.73;5.77;;;2.30;96.20;;;;;;4996934;28;20500;-61
2022/11/24 03:04:31;;;;;;;7.70;5.50;;;2.30;96.20;;;;;;4981272;28;20186;-61
2022/11/24 03:06:57;;;;;;;8.73;6.07;;;2.30;96.20;;;;;;4983081;28;20196;-61
2022/11/24 03:09:23;;;;;;;10.70;7.00;;;2.30;96.20;;;;;;4996321;28;20250;-61
2022/11/24 03:11:48;;;;;;;9.27;7.40;;;2.30;96.20;;;;;;4980014;28;20471;-61
2022/11/24 03:14:14;;;;;;;7.13;5.63;;;2.30;96.20;;;;;;4993064;28;20189;-61
2022/11/24 03:16:45;;;;;;;11.77;7.07;;;2.30;96.20;;;;;;4990727;28;20196;-61
2022/11/24 03:19:11;;;;;;;11.03;7.73;;;2.30;96.20;;;;;;4992371;28;20444;-61
2022/11/24 03:22:01;;;;;;;9.27;6.63;;;2.30;96.20;;;;;;5005867;28;20545;-61
2022/11/24 03:24:56;;;;;;;12.53;7.00;;;2.30;96.20;;;;;;5010066;28;20213;-61
2022/11/24 03:27:28;;;;;;;11.70;6.23;;;2.30;96.20;;;;;;5012881;28;20450;-61
2022/11/24 03:33:51;;;;;;;9.30;5.93;;;2.30;96.20;;;;;;4959323;28;20545;-61
2022/11/24 03:36:17;;;;;;;8.63;6.70;;;2.30;96.20;;;;;;4970568;28;20460;-61
2022/11/24 03:38:43;;;;;;;10.20;6.80;;;2.30;96.20;;;;;;4980258;28;20529;-61
2022/11/24 03:41:12;;;;;;;8.23;6.70;;;2.30;96.20;;;;;;4995753;28;20517;-61
2022/11/24 03:43:42;;;;;;;8.93;6.83;;;2.30;96.20;;;;;;4994700;28;20207;-61
2022/11/24 03:46:08;;;;;;;12.97;7.70;;;2.30;96.20;;;;;;5011496;28;20437;-61
2022/11/24 03:48:34;;;;;;;10.67;6.47;;;2.30;96.20;;;;;;5029473;28;20421;-61
2022/11/24 03:51:06;;;;;;;9.60;6.87;;;2.30;96.10;;;;;;5008280;28;20260;-62
2022/11/24 03:53:33;;;;;;;9.70;7.30;;;2.30;96.10;;;;;;5002921;28;20188;-61
2022/11/24 03:56:00;;;;;;;9.13;7.10;;;2.30;96.10;;;;;;5014028;28;20423;-61
2022/11/24 03:58:26;;;;;;;12.67;7.40;;;2.30;96.10;;;;;;5041109;28;20434;-61
2022/11/24 04:00:53;;;;;;;10.57;7.40;;;2.30;96.20;;;;;;5000399;28;20447;-61
2022/11/24 04:03:19;;;;;;;10.20;6.27;;;2.30;96.10;;;;;;5007643;28;20447;-61
2022/11/24 04:05:45;;;;;;;11.80;6.40;;;2.30;96.10;;;;;;4995575;28;20442;-61
2022/11/24 04:08:11;;;;;;;11.50;5.80;;;2.30;96.10;;;;;;5012827;28;20435;-61
2022/11/24 04:10:38;;;;;;;10.03;6.77;;;2.30;96.10;;;;;;5012005;28;20488;-61
2022/11/24 04:13:13;;;;;;;7.77;6.07;;;2.30;96.10;;;;;;5012339;28;20212;-61
2022/11/24 04:15:41;;;;;;;8.37;6.00;;;2.30;96.10;;;;;;5000642;28;20441;-61
2022/11/24 04:18:07;;;;;;;9.10;6.13;;;2.30;96.10;;;;;;5014180;28;21008;-61
2022/11/24 04:20:33;;;;;;;8.67;6.83;;;2.20;96.10;;;;;;4995142;28;20442;-61
2022/11/24 04:22:59;;;;;;;7.87;5.90;;;2.20;96.10;;;;;;4998828;28;20426;-61
2022/11/24 04:25:25;;;;;;;7.47;5.83;;;2.20;96.10;;;;;;5000024;28;20782;-61
2022/11/24 04:27:52;;;;;;;10.60;6.17;;;2.20;96.10;;;;;;5016222;28;20188;-61
2022/11/24 04:30:20;;;;;;;8.03;5.37;;;2.20;96.10;;;;;;5015344;28;20549;-61
2022/11/24 04:32:47;;;;;;;7.67;5.40;;;2.20;96.10;;;;;;5016997;28;20500;-61
2022/11/24 04:35:13;;;;;;;6.73;5.60;;;2.20;96.10;;;;;;4998940;28;20913;-61
2022/11/24 04:37:39;;;;;;;7.27;6.00;;;2.20;96.10;;;;;;5015871;28;20976;-61
2022/11/24 04:40:06;;;;;;;8.17;5.77;;;2.20;96.20;;;;;;4999149;28;20448;-61
2022/11/24 04:42:32;;;;;;;10.23;5.63;;;2.20;96.10;;;;;;5015699;28;20492;-61
2022/11/24 04:44:57;;;;;;;8.73;5.47;;;2.30;96.10;;;;;;4996581;28;20429;-61
2022/11/24 04:47:25;;;;;;;7.57;6.17;;;2.30;96.20;;;;;;5011125;28;20192;-61
2022/11/24 04:49:51;;;;;;;8.57;6.50;;;2.30;96.10;;;;;;4996377;28;20275;-61
2022/11/24 04:52:18;;;;;;;9.63;6.07;;;2.20;96.20;;;;;;5015736;28;20476;-61
2022/11/24 04:54:44;;;;;;;11.20;6.33;;;2.20;96.20;;;;;;4995589;28;20446;-61
2022/11/24 04:57:28;;;;;;;6.63;5.20;;;2.20;96.20;;;;;;4982525;28;20427;-61
2022/11/24 04:59:54;;;;;;;6.60;5.50;;;2.20;96.20;;;;;;4988892;28;20908;-61
2022/11/24 05:02:23;;;;;;;7.43;6.40;;;2.20;96.20;;;;;;5016123;28;20512;-61
2022/11/24 05:04:49;;;;;;;7.93;5.90;;;2.20;96.20;;;;;;5041352;28;20194;-61
2022/11/24 05:07:16;;;;;;;8.17;6.40;;;2.20;96.20;;;;;;5016690;28;20453;-61
2022/11/24 05:12:30;;;;;;;9.07;6.30;;;2.30;96.20;;;;;;5015413;28;21007;-61
2022/11/24 05:15:03;;;;;;;9.60;6.27;;;2.30;96.20;;;;;;4999416;28;20715;-61
2022/11/24 05:17:35;;;;;;;8.97;6.77;;;2.30;96.20;;;;;;4997872;28;20513;-61
2022/11/24 05:20:01;;;;;;;11.23;6.87;;;2.30;96.20;;;;;;5015494;28;20448;-62
2022/11/24 05:22:28;;;;;;;10.73;6.87;;;2.30;96.20;;;;;;4998721;28;20520;-62
2022/11/24 05:24:54;;;;;;;9.53;6.67;;;2.30;96.30;;;;;;4998307;28;20452;-61
2022/11/24 05:27:20;;;;;;;7.17;6.37;;;2.30;96.30;;;;;;5015115;28;20439;-61
2022/11/24 05:29:46;;;;;;;11.47;7.07;;;2.30;96.30;;;;;;5015139;28;20289;-61
2022/11/24 05:32:12;;;;;;;8.40;5.63;;;2.30;96.20;;;;;;5001381;28;20566;-61
2022/11/24 05:34:37;;;;;;;10.43;6.53;;;2.30;96.30;;;;;;4974544;28;20184;-61
2022/11/24 05:37:03;;;;;;;8.13;6.70;;;2.40;96.30;;;;;;4980540;28;20244;-61
2022/11/24 05:39:33;;;;;;;9.03;5.90;;;2.30;96.30;;;;;;4998782;28;20184;-61
2022/11/24 05:42:39;;;;;;;8.37;6.50;;;2.40;96.30;;;;;;5014899;28;20713;-62
2022/11/24 05:44:46;;;;;;;6.47;5.60;;;2.40;96.20;;;;;;5011545;28;20422;-62
2022/11/24 05:47:12;;;;;;;9.60;7.03;;;2.40;96.30;;;;;;4981619;28;20497;-62
2022/11/24 05:49:38;;;;;;;9.57;6.80;;;2.40;96.30;;;;;;4981436;28;20665;-62
2022/11/24 05:52:03;;;;;;;7.40;5.67;;;2.50;96.30;;;;;;4994729;28;20774;-63
2022/11/24 05:54:29;;;;;;;8.03;6.57;;;2.50;96.30;;;;;;4997008;28;20196;-62
2022/11/24 05:56:55;;;;;;;8.37;5.53;;;2.50;96.30;;;;;;4980887;28;20214;-62
2022/11/24 05:59:20;;;;;;;9.63;6.10;;;2.50;96.30;;;;;;4997439;28;20587;-62
2022/11/24 06:01:46;;;;;;;13.67;6.43;;;2.60;96.30;;;;;;5015285;28;20192;-62
2022/11/24 06:04:12;;;;;;;7.67;6.50;;;2.60;96.30;;;;;;4981566;28;20669;-62
2022/11/24 06:06:38;;;;;;;12.93;6.40;;;2.60;96.30;;;;;;4997952;28;20215;-62
2022/11/24 06:09:03;;;;;;;9.33;6.40;;;2.70;96.30;;;;;;4997261;28;20234;-63
2022/11/24 06:11:29;;;;;;;11.03;5.77;;;2.60;96.30;;;;;;4981040;28;20207;-63
2022/11/24 06:14:02;;;;;;;7.00;5.77;;;2.70;96.30;;;;;;4997671;28;20203;-63
2022/11/24 06:16:35;;;;;;;9.80;7.67;;;2.60;96.30;;;;;;5004928;28;20191;-62
2022/11/24 06:19:00;;;;;;;8.33;6.47;;;2.70;96.30;;;;;;4997861;28;20453;-62
2022/11/24 06:21:26;;;;;;;8.90;6.07;;;2.70;96.30;;;;;;4979801;28;20454;-62
2022/11/24 06:23:52;;;;;;;9.73;6.57;;;2.80;96.30;;;;;;4996263;28;20256;-63
2022/11/24 06:26:18;;;;;;;6.67;5.23;;;2.80;96.30;;;;;;4997402;28;20525;-62
2022/11/24 06:28:43;;;;;;;9.07;6.30;;;2.80;96.30;;;;;;4979191;28;20214;-62
2022/11/24 06:31:09;;;;;;;11.63;6.90;;;2.80;96.30;;;;;;4996899;28;20199;-62
2022/11/24 06:33:36;;;;;;;12.87;6.10;;;2.80;96.30;;;;;;4977026;28;20188;-62
2022/11/24 06:36:06;;;;;;;7.20;5.97;;;2.80;96.30;;;;;;5012791;28;20198;-62
2022/11/24 06:38:33;;;;;;;9.40;6.80;;;2.80;96.30;;;;;;5026276;28;20486;-62
2022/11/24 06:41:11;;;;;;;8.80;6.40;;;2.80;96.30;;;;;;4996768;28;20443;-62
2022/11/24 06:43:37;;;;;;;7.43;5.77;;;2.80;96.30;;;;;;5006548;28;20426;-62
2022/11/24 06:46:03;;;;;;;6.80;5.93;;;2.80;96.30;;;;;;4983027;28;20444;-62
2022/11/24 06:48:29;;;;;;;7.57;5.17;;;2.90;96.30;;;;;;5016685;28;20222;-62
2022/11/24 06:50:59;;;;;;;7.17;5.63;;;2.80;96.30;;;;;;5015697;28;20202;-62
2022/11/24 06:53:25;;;;;;;6.87;5.33;;;2.80;96.20;;;;;;5011982;28;20443;-62
2022/11/24 06:55:51;;;;;;;7.83;5.90;;;2.90;96.20;;;;;;4997775;28;20452;-62
2022/11/24 06:58:17;;;;;;;9.60;6.50;;;2.80;96.20;;;;;;4993412;28;20218;-63
2022/11/24 07:00:43;;;;;;;6.77;5.50;;;2.90;96.20;;;;;;4998070;28;20445;-63
2022/11/24 07:03:15;;;;;;;8.87;5.27;;;2.90;96.30;;;;;;5010484;28;20248;-63
2022/11/24 07:05:41;;;;;;;6.90;5.53;;;3.00;96.30;;;;;;5013905;28;20661;-62
2022/11/24 07:08:07;;;;;;;9.03;5.90;;;2.90;96.30;;;;;;5027383;28;20427;-63
2022/11/24 07:10:33;;;;;;;9.03;6.00;;;3.00;96.40;;;;;;4978747;28;20977;-64
2022/11/24 07:12:58;;;;;;;7.07;5.60;;;3.00;96.40;;;;;;4982283;28;20238;-64
2022/11/24 07:15:24;;;;;;;7.57;5.83;;;3.00;96.40;;;;;;5012217;28;20187;-63
2022/11/24 07:17:50;;;;;;;7.03;5.17;;;3.00;96.40;;;;;;4999205;28;20179;-63
2022/11/24 07:20:16;;;;;;;9.27;6.10;;;3.00;96.40;;;;;;4989138;28;20257;-63
2022/11/24 07:22:41;;;;;;;7.80;6.17;;;3.00;96.40;;;;;;4997067;28;20201;-63
2022/11/24 07:25:08;;;;;;;6.67;5.63;;;3.10;96.40;;;;;;4980323;28;20201;-63
2022/11/24 07:27:34;;;;;;;9.37;6.57;;;3.10;96.40;;;;;;5023449;28;20274;-63
2022/11/24 07:30:00;;;;;;;7.60;5.80;;;3.10;96.40;;;;;;4982259;28;20433;-63
2022/11/24 07:32:26;;;;;;;8.63;6.30;;;3.10;96.40;;;;;;5043170;28;20469;-63
2022/11/24 07:34:52;;;;;;;7.90;5.43;;;3.10;96.40;;;;;;5020783;28;20524;-63
2022/11/24 07:37:17;;;;;;;8.60;6.47;;;3.10;96.40;;;;;;4981388;28;20261;-63
2022/11/24 07:39:43;;;;;;;8.57;6.00;;;3.10;96.40;;;;;;4980185;28;20191;-63
2022/11/24 07:42:10;;;;;;;7.87;5.97;;;3.10;96.40;;;;;;5032165;28;20737;-63
2022/11/24 07:44:36;;;;;;;7.00;5.90;;;3.00;96.40;;;;;;4979258;28;20284;-63
2022/11/24 07:47:01;;;;;;;7.77;5.57;;;3.10;96.40;;;;;;5002916;28;20504;-63
2022/11/24 07:49:27;;;;;;;8.00;6.17;;;3.10;96.30;;;;;;4967563;28;20989;-63
2022/11/24 07:51:53;;;;;;;7.83;6.50;;;3.10;96.30;;;;;;4993739;28;20219;-63
2022/11/24 07:54:18;;;;;;;10.67;6.40;;;3.10;96.40;;;;;;4989577;28;20206;-63
2022/11/24 07:56:47;;;;;;;9.67;7.23;;;3.10;96.30;;;;;;5014178;28;20241;-63
2022/11/24 07:59:13;;;;;;;10.27;7.20;;;3.10;96.30;;;;;;5017844;28;20202;-63
2022/11/24 08:01:39;;;;;;;14.17;8.57;;;3.10;96.30;;;;;;5000599;28;20534;-63
2022/11/24 08:04:05;;;;;;;9.73;6.90;;;3.10;96.30;;;;;;5026786;28;20245;-63
2022/11/24 08:06:31;;;;;;;10.90;7.53;;;3.10;96.30;;;;;;5004665;28;20446;-63
2022/11/24 08:08:57;;;;;;;8.17;6.80;;;3.10;96.30;;;;;;4984255;28;20457;-63
2022/11/24 08:11:23;;;;;;;12.53;8.50;;;3.10;96.30;;;;;;5000636;28;20219;-63
2022/11/24 08:13:49;;;;;;;9.33;7.30;;;3.10;96.30;;;;;;4985386;28;20524;-63
2022/11/24 08:16:17;;;;;;;12.00;7.53;;;3.20;96.30;;;;;;5002166;28;20548;-63
2022/11/24 08:18:47;;;;;;;10.17;7.60;;;3.20;96.40;;;;;;5017694;28;20218;-63
2022/11/24 08:21:13;;;;;;;12.03;6.67;;;3.20;96.30;;;;;;5017860;28;20448;-63
2022/11/24 08:23:39;;;;;;;10.40;6.97;;;3.20;96.30;;;;;;5000584;28;20506;-63
2022/11/24 08:26:08;;;;;;;11.23;7.27;;;3.20;96.30;;;;;;5001341;28;20514;-63
2022/11/24 08:28:34;;;;;;;13.57;7.87;;;3.20;96.30;;;;;;5002439;28;20278;-63
2022/11/24 08:31:09;;;;;;;8.70;6.77;;;3.30;96.30;;;;;;5011205;28;20446;-63
2022/11/24 08:33:35;;;;;;;11.20;8.07;;;3.30;96.30;;;;;;5016602;28;20531;-63
2022/11/24 08:36:08;;;;;;;13.80;9.20;;;3.30;96.20;;;;;;4996232;28;20493;-64
2022/11/24 08:38:33;;;;;;;13.53;9.43;;;3.30;96.20;;;;;;4998871;28;21087;-63
2022/11/24 08:41:05;;;;;;;13.90;10.30;;;3.30;96.20;;;;;;5016645;28;20438;-64
2022/11/24 08:43:31;;;;;;;13.93;9.10;;;3.30;96.30;;;;;;5015612;28;20178;-63
2022/11/24 08:46:05;;;;;;;10.47;8.50;;;3.30;96.30;;;;;;5034299;28;20435;-63
2022/11/24 08:48:31;;;;;;;12.47;8.23;;;3.40;96.20;;;;;;5017162;28;20179;-63
2022/11/24 08:50:58;;;;;;;11.93;8.63;;;3.50;96.20;;;;;;5016627;28;20544;-63
2022/11/24 08:53:24;;;;;;;8.57;7.50;;;3.50;96.30;;;;;;5017196;28;20463;-62
2022/11/24 08:55:50;;;;;;;10.80;8.30;;;3.60;96.30;;;;;;4999725;28;20456;-62
2022/11/24 08:58:16;;;;;;;11.70;7.97;;;3.60;96.30;;;;;;5011309;28;20506;-64
2022/11/24 09:00:42;;;;;;;11.10;6.83;;;3.70;96.40;;;;;;4994394;28;20196;-64
2022/11/24 09:03:10;;;;;;;11.10;7.77;;;3.80;96.40;;;;;;5010834;28;20532;-65
2022/11/24 09:05:35;;;;;;;10.33;8.70;;;3.80;96.40;;;;;;5011272;28;20429;-64
2022/11/24 09:08:01;;;;;;;8.70;7.03;;;3.90;96.40;;;;;;5014926;28;20445;-64
2022/11/24 09:10:27;;;;;;;9.50;7.37;;;3.90;96.40;;;;;;5008875;28;20219;-64
2022/11/24 09:12:52;;;;;;;12.93;7.87;;;4.00;96.40;;;;;;5016922;28;20210;-64
2022/11/24 09:15:19;;;;;;;9.60;8.37;;;4.10;96.50;;;;;;5008078;28;20195;-64
2022/11/24 09:17:45;;;;;;;14.33;8.37;;;4.10;96.50;;;;;;5011062;28;20262;-64
2022/11/24 09:20:11;;;;;;;9.30;7.77;;;4.30;96.50;;;;;;5016230;28;20512;-64
2022/11/24 09:22:37;;;;;;;8.87;7.83;;;4.30;96.50;;;;;;5015898;28;20450;-64
2022/11/24 09:25:04;;;;;;;7.87;6.47;;;4.30;96.50;;;;;;5014477;28;20418;-65
2022/11/24 09:27:30;;;;;;;10.03;8.00;;;4.40;96.60;;;;;;5015644;28;20187;-64
2022/11/24 09:29:56;;;;;;;9.27;7.57;;;4.60;96.60;;;;;;5016146;28;20425;-64
2022/11/24 09:32:21;;;;;;;8.63;6.73;;;4.70;96.60;;;;;;4979543;28;20221;-64
2022/11/24 09:34:50;;;;;;;10.00;6.47;;;4.80;96.60;;;;;;4994449;28;20198;-64
2022/11/24 09:37:16;;;;;;;13.67;6.37;;;4.90;96.70;;;;;;4996810;28;20254;-64
2022/11/24 09:39:41;;;;;;;8.17;6.13;;;5.00;96.70;;;;;;4994809;28;20457;-64
2022/11/24 09:42:15;;;;;;;8.17;6.90;;;5.10;96.70;;;;;;5000441;28;20955;-64
2022/11/24 09:44:59;;;;;;;9.43;6.63;;;5.30;96.70;;;;;;5014391;28;20282;-65
2022/11/24 09:47:40;;;;;;;8.30;6.33;;;5.30;96.70;;;;;;5015068;28;20450;-64
2022/11/24 09:50:43;;;;;;;9.13;5.90;;;5.30;96.60;;;;;;5019166;28;20432;-64
2022/11/24 09:53:44;;;;;;;8.83;6.10;;;5.40;96.50;;;;;;5031128;28;20473;-65
2022/11/24 09:56:20;;;;;;;5.90;5.30;;;5.50;96.50;;;;;;4994441;28;20426;-65
2022/11/24 09:58:53;;;;;;;10.97;6.47;;;5.60;96.40;;;;;;5014749;28;20494;-64
2022/11/24 10:01:19;;;;;;;7.80;5.57;;;5.60;96.40;;;;;;5014129;28;20426;-68
2022/11/24 10:03:48;;;;;;;10.40;6.03;;;5.70;96.40;;;;;;5033311;28;20452;-65
2022/11/24 10:06:24;;;;;;;6.70;5.03;;;5.70;96.40;;;;;;5005166;28;20183;-64
2022/11/24 10:09:02;;;;;;;5.80;4.40;;;5.80;96.50;;;;;;5016721;28;20429;-65
2022/11/24 10:11:41;;;;;;;5.93;5.10;;;6.00;96.50;;;;;;5015738;28;20421;-65
2022/11/24 10:14:29;;;;;;;6.70;5.63;;;6.10;96.60;;;;;;5016591;28;20453;-65
2022/11/24 10:17:39;;;;;;;5.87;4.70;;;6.20;96.60;;;;;;5014800;28;20644;-63
2022/11/24 10:20:29;;;;;;;7.20;4.63;;;6.30;96.60;;;;;;4961582;28;20445;-63
2022/11/24 10:23:03;;;;;;;7.27;5.07;;;6.40;96.60;;;;;;5013867;28;20441;-63
2022/11/24 10:26:05;;;;;;;5.30;4.30;;;6.40;96.50;;;;;;5001862;28;20422;-63
2022/11/24 10:28:40;;;;;;;9.50;4.93;;;6.50;96.50;;;;;;5014104;28;20448;-63
2022/11/24 10:31:22;;;;;;;5.10;4.60;;;6.50;96.20;;;;;;4999169;28;20424;-63
2022/11/24 10:33:48;;;;;;;6.93;4.63;;;6.60;96.20;;;;;;5011379;28;20446;-63
2022/11/24 10:36:22;;;;;;;7.73;4.73;;;6.80;96.30;;;;;;5032422;28;20525;-63
2022/11/24 10:39:00;;;;;;;7.80;6.03;;;6.80;95.80;;;;;;5010507;28;20515;-63
2022/11/24 10:41:45;;;;;;;8.17;6.20;;;6.80;95.20;;;;;;5006140;28;20431;-64
2022/11/24 10:44:12;;;;;;;7.13;5.67;;;6.90;93.50;;;;;;5002587;28;20438;-64
2022/11/24 10:46:38;;;;;;;6.80;4.87;;;7.00;94.40;;;;;;4995555;28;20469;-63
2022/11/24 10:49:04;;;;;;;7.10;5.07;;;7.20;94.90;;;;;;4993708;28;20431;-62
2022/11/24 10:51:52;;;;;;;5.90;4.87;;;7.30;95.30;;;;;;4975595;28;20219;-63
2022/11/24 10:54:22;;;;;;;11.87;5.87;;;7.40;95.50;;;;;;5011095;28;20427;-63
2022/11/24 10:56:51;;;;;;;9.00;4.83;;;7.50;95.40;;;;;;5011149;28;20527;-63
2022/11/24 10:59:30;;;;;;;6.33;4.87;;;7.60;95.50;;;;;;5010534;28;20443;-63
2022/11/24 11:01:57;;;;;;;7.07;5.17;;;7.70;95.70;;;;;;5012018;28;20422;-61
2022/11/24 11:04:33;;;;;;;6.33;5.20;;;7.80;95.80;;;;;;4996481;28;20439;-59
2022/11/24 11:07:18;;;;;;;7.87;5.57;;;7.80;95.80;;;;;;5013053;28;20459;-60
2022/11/24 11:09:44;;;;;;;11.20;6.30;;;7.80;95.30;;;;;;5000486;28;20434;-63
2022/11/24 11:12:19;;;;;;;6.40;5.53;;;7.80;91.20;;;;;;5002397;28;20479;-62
2022/11/24 11:14:47;;;;;;;8.47;5.77;;;7.90;92.80;;;;;;5034399;28;20430;-61
2022/11/24 11:17:33;;;;;;;10.37;6.63;;;7.90;91.40;;;;;;4978474;28;21092;-63
2022/11/24 11:20:17;;;;;;;9.60;6.80;;;8.00;87.30;;;;;;5003466;28;20418;-64
2022/11/24 11:22:46;;;;;;;12.17;6.87;;;8.00;89.70;;;;;;4981513;28;20858;-64
2022/11/24 11:25:12;;;;;;;13.67;8.80;;;8.00;87.40;;;;;;5009272;28;20458;-64
2022/11/24 11:27:39;;;;;;;13.43;8.70;;;8.30;88.20;;;;;;5011548;28;20434;-64
2022/11/24 11:30:19;;;;;;;16.77;9.13;;;8.20;90.00;;;;;;5011396;28;20337;-64
2022/11/24 11:32:55;;;;;;;16.27;8.47;;;8.30;89.70;;;;;;5010923;28;20531;-65
2022/11/24 11:35:23;;;;;;;11.73;8.40;;;8.40;87.30;;;;;;5011439;28;20429;-62
2022/11/24 11:37:51;;;;;;;12.07;7.83;;;8.60;90.20;;;;;;4995232;28;20487;-64
2022/11/24 11:40:22;;;;;;;12.00;7.80;;;8.70;84.90;;;;;;4993482;28;20423;-64
2022/11/24 11:42:55;;;;;;;11.83;6.10;;;8.90;85.60;;;;;;5009727;28;20446;-64
2022/11/24 11:45:26;;;;;;;15.37;6.97;;;9.10;81.80;;;;;;5011953;28;20510;-65
2022/11/24 11:48:00;;;;;;;8.87;6.13;;;9.30;78.90;;;;;;5011535;28;20447;-64
2022/11/24 11:50:51;;;;;;;7.20;4.87;;;9.40;82.30;;;;;;5035253;28;20199;-64
2022/11/24 11:53:37;;;;;;;9.13;6.37;;;9.50;81.00;;;;;;5011877;28;20476;-62
2022/11/24 11:56:20;;;;;;;7.20;6.00;;;9.60;80.40;;;;;;5005643;28;20246;-62
2022/11/24 11:59:05;;;;;;;9.90;5.43;;;9.80;78.40;;;;;;5032073;28;20207;-63
2022/11/24 12:01:49;;;;;;;7.90;5.77;;;9.80;82.60;;;;;;5005197;28;20634;-64
2022/11/24 12:04:26;;;;;;;8.30;6.53;;;9.90;82.00;;;;;;5006479;28;20195;-63
2022/11/24 12:07:17;;;;;;;7.07;5.30;;;9.90;84.30;;;;;;5015218;28;20270;-63
2022/11/24 12:10:17;;;;;;;8.30;5.60;;;10.00;79.10;;;;;;5009453;28;20188;-63
2022/11/24 12:12:59;;;;;;;11.60;6.33;;;10.00;81.90;;;;;;4987186;28;20219;-62
2022/11/24 12:15:39;;;;;;;7.47;6.23;;;10.10;78.90;;;;;;5012130;28;20188;-63
2022/11/24 12:18:29;;;;;;;8.73;5.33;;;10.20;77.20;;;;;;5003782;28;20270;-60
2022/11/24 12:21:14;;;;;;;7.40;5.10;;;10.20;81.50;;;;;;5010573;28;20219;-61
2022/11/24 12:24:06;;;;;;;7.33;4.60;;;10.30;77.40;;;;;;5009157;28;20199;-61
2022/11/24 12:26:47;;;;;;;7.53;4.30;;;10.40;74.90;;;;;;5028719;28;20279;-61
2022/11/24 12:29:26;;;;;;;8.60;4.03;;;10.60;75.90;;;;;;5013140;28;20195;-61
2022/11/24 12:32:05;;;;;;;5.93;3.47;;;10.70;76.50;;;;;;5006055;28;20698;-61
2022/11/24 12:34:43;;;;;;;6.80;4.07;;;10.70;76.00;;;;;;5011453;28;20186;-61
2022/11/24 12:37:30;;;;;;;4.47;3.53;;;10.80;79.00;;;;;;4997790;28;20253;-61
2022/11/24 12:40:23;;;;;;;4.53;3.20;;;10.90;80.50;;;;;;5007315;28;20196;-61
2022/11/24 12:43:20;;;;;;;5.73;3.10;;;11.10;80.10;;;;;;5008996;28;20675;-61
2022/11/24 12:45:56;;;;;;;3.77;2.70;;;11.10;78.30;;;;;;5011823;28;20196;-61
2022/11/24 12:48:34;;;;;;;2.57;2.30;;;11.20;73.10;;;;;;5014045;28;20202;-61
2022/11/24 12:51:02;;;;;;;3.80;2.30;;;11.20;70.90;;;;;;5018974;28;20230;-61
2022/11/24 12:53:32;;;;;;;3.57;2.20;;;11.20;71.60;;;;;;5014386;28;20250;-61
2022/11/24 12:56:09;;;;;;;2.90;2.30;;;11.20;70.70;;;;;;5012396;28;20199;-61
2022/11/24 12:58:54;;;;;;;4.23;2.40;;;11.20;68.60;;;;;;5015263;28;20191;-61
2022/11/24 13:01:34;;;;;;;4.93;3.10;;;11.20;68.40;;;;;;5011385;28;20200;-61
2022/11/24 13:04:23;;;;;;;4.37;2.70;;;11.30;71.10;;;;;;5008548;28;20192;-61
2022/11/24 13:06:56;;;;;;;5.47;2.90;;;11.30;66.10;;;;;;5005134;28;20184;-61
2022/11/24 13:09:22;;;;;;;5.63;3.47;;;11.20;71.00;;;;;;5001126;28;20192;-60
2022/11/24 13:11:50;;;;;;;6.53;3.23;;;11.20;70.30;;;;;;5010705;28;20215;-61
2022/11/24 13:14:30;;;;;;;7.20;4.17;;;11.20;70.10;;;;;;5012288;28;20192;-61
2022/11/24 13:16:58;;;;;;;9.27;4.47;;;11.30;71.80;;;;;;5006354;28;20218;-61
2022/11/24 13:19:27;;;;;;;8.70;3.70;;;11.30;69.00;;;;;;5012386;28;20188;-60